createdAt,value
2017-10-16T00:00:00.892Z,28.97
2017-10-16T00:02:27.126Z,35.97
2017-10-16T00:04:53.373Z,26.57
2017-10-16T00:07:19.612Z,46.60
2017-10-16T00:09:45.815Z,37.93
2017-10-16T00:12:12.050Z,28.30
2017-10-16T00:14:38.274Z,25.53
2017-10-16T00:17:04.541Z,27.77
2017-10-16T00:19:30.776Z,22.53
2017-10-16T00:21:57.004Z,26.97
2017-10-16T00:24:23.238Z,26.87
2017-10-16T00:26:49.433Z,34.03
2017-10-16T00:29:15.657Z,25.37
2017-10-16T00:31:41.908Z,35.67
2017-10-16T00:34:08.126Z,38.77
2017-10-16T00:36:34.361Z,35.50
2017-10-16T00:39:00.584Z,26.97
2017-10-16T00:41:26.869Z,28.37
2017-10-16T00:43:53.077Z,26.93
2017-10-16T00:46:19.282Z,41.03
2017-10-16T00:48:45.624Z,30.23
2017-10-16T00:51:11.860Z,26.83
2017-10-16T00:53:38.133Z,24.33
2017-10-16T00:56:04.365Z,24.93
2017-10-16T00:58:30.585Z,32.67
2017-10-16T01:00:56.826Z,22.70
2017-10-16T01:03:23.046Z,22.80
2017-10-16T01:05:49.291Z,27.20
2017-10-16T01:08:15.527Z,23.33
2017-10-16T01:10:41.765Z,24.50
2017-10-16T01:13:08.013Z,26.40
2017-10-16T01:15:34.249Z,35.43
2017-10-16T01:18:00.510Z,30.37
2017-10-16T01:20:26.719Z,30.63
2017-10-16T01:22:52.936Z,25.10
2017-10-16T01:25:19.137Z,29.40
2017-10-16T01:27:45.367Z,29.87
2017-10-16T01:30:11.611Z,22.97
2017-10-16T01:32:37.848Z,23.73
2017-10-16T01:35:04.075Z,27.40
2017-10-16T01:37:30.479Z,30.67
2017-10-16T01:39:56.693Z,31.13
2017-10-16T01:42:22.960Z,33.97
2017-10-16T01:44:49.167Z,25.90
2017-10-16T01:47:15.398Z,23.60
2017-10-16T01:49:41.753Z,28.23
2017-10-16T01:52:07.983Z,34.43
2017-10-16T01:54:34.241Z,23.53
2017-10-16T01:57:00.456Z,25.63
2017-10-16T01:59:26.691Z,22.87
2017-10-16T02:01:52.899Z,24.40
2017-10-16T02:04:19.135Z,31.27
2017-10-16T02:06:45.382Z,22.87
2017-10-16T02:09:11.600Z,22.07
2017-10-16T02:11:37.823Z,32.43
2017-10-16T02:14:04.046Z,25.60
2017-10-16T02:16:30.271Z,23.87
2017-10-16T02:18:56.498Z,31.90
2017-10-16T02:21:22.705Z,37.10
2017-10-16T02:23:48.920Z,31.50
2017-10-16T02:26:15.160Z,26.90
2017-10-16T02:28:41.396Z,37.03
2017-10-16T02:31:07.658Z,32.40
2017-10-16T02:33:33.897Z,29.80
2017-10-16T02:36:00.166Z,32.93
2017-10-16T02:38:26.400Z,28.53
2017-10-16T02:40:52.635Z,27.60
2017-10-16T02:43:18.904Z,35.23
2017-10-16T02:45:45.147Z,30.67
2017-10-16T02:48:11.373Z,31.77
2017-10-16T02:50:37.618Z,31.03
2017-10-16T02:53:03.834Z,29.80
2017-10-16T02:55:30.061Z,36.13
2017-10-16T02:57:56.311Z,38.70
2017-10-16T03:00:22.539Z,28.10
2017-10-16T03:02:48.797Z,23.80
2017-10-16T03:05:15.037Z,23.73
2017-10-16T03:07:41.320Z,23.97
2017-10-16T03:10:07.553Z,21.70
2017-10-16T03:12:33.788Z,22.83
2017-10-16T03:15:00.013Z,29.57
2017-10-16T03:17:26.243Z,26.73
2017-10-16T03:19:52.486Z,25.97
2017-10-16T03:22:18.722Z,21.57
2017-10-16T03:24:44.952Z,35.97
2017-10-16T03:27:11.192Z,28.20
2017-10-16T03:29:37.430Z,17.57
2017-10-16T03:32:03.696Z,26.60
2017-10-16T03:34:29.925Z,21.67
2017-10-16T03:36:56.167Z,29.33
2017-10-16T03:39:22.408Z,29.13
2017-10-16T03:41:48.628Z,24.50
2017-10-16T03:44:14.869Z,26.23
2017-10-16T03:46:41.194Z,23.50
2017-10-16T03:49:07.422Z,29.27
2017-10-16T03:51:33.649Z,20.70
2017-10-16T03:53:59.870Z,32.30
2017-10-16T03:56:26.130Z,42.93
2017-10-16T03:58:52.368Z,26.67
2017-10-16T04:01:18.588Z,33.43
2017-10-16T04:03:44.828Z,28.57
2017-10-16T04:06:11.062Z,23.07
2017-10-16T04:08:37.341Z,24.90
2017-10-16T04:11:03.594Z,30.00
2017-10-16T04:13:29.873Z,78.10
2017-10-16T04:15:56.163Z,29.30
2017-10-16T04:18:22.397Z,25.60
2017-10-16T04:20:48.686Z,22.37
2017-10-16T04:23:14.939Z,25.87
2017-10-16T04:25:41.169Z,24.83
2017-10-16T04:28:07.413Z,20.87
2017-10-16T04:30:33.642Z,29.53
2017-10-16T04:32:59.867Z,26.43
2017-10-16T04:35:26.120Z,23.37
2017-10-16T04:37:52.361Z,25.17
2017-10-16T04:40:18.586Z,36.00
2017-10-16T04:42:44.824Z,25.93
2017-10-16T04:45:11.086Z,42.23
2017-10-16T04:47:37.319Z,29.40
2017-10-16T04:50:03.542Z,30.63
2017-10-16T04:52:29.785Z,23.87
2017-10-16T04:54:56.014Z,36.33
2017-10-16T04:57:22.278Z,29.77
2017-10-16T04:59:48.521Z,25.23
2017-10-16T05:02:14.768Z,23.77
2017-10-16T05:04:41.012Z,29.90
2017-10-16T05:07:07.259Z,23.63
2017-10-16T05:09:33.604Z,30.27
2017-10-16T05:11:59.851Z,23.13
2017-10-16T05:14:26.082Z,31.83
2017-10-16T05:16:52.322Z,40.63
2017-10-16T05:19:18.576Z,28.97
2017-10-16T05:21:44.806Z,34.47
2017-10-16T05:24:11.052Z,33.40
2017-10-16T05:26:37.277Z,20.20
2017-10-16T05:29:03.538Z,20.77
2017-10-16T05:31:29.802Z,20.60
2017-10-16T05:33:56.042Z,15.53
2017-10-16T05:36:22.283Z,21.43
2017-10-16T05:38:48.508Z,20.53
2017-10-16T05:41:14.739Z,21.90
2017-10-16T05:43:40.986Z,29.13
2017-10-16T05:46:07.257Z,19.67
2017-10-16T05:48:33.482Z,39.90
2017-10-16T05:50:59.707Z,19.40
2017-10-16T05:53:25.970Z,25.20
2017-10-16T05:55:52.212Z,49.23
2017-10-16T05:58:18.426Z,28.70
2017-10-16T06:00:44.651Z,20.00
2017-10-16T06:03:10.874Z,43.93
2017-10-16T06:05:37.104Z,16.87
2017-10-16T06:08:03.335Z,24.10
2017-10-16T06:10:29.563Z,37.60
2017-10-16T06:12:55.790Z,30.10
2017-10-16T06:15:22.021Z,32.80
2017-10-16T06:17:48.287Z,25.97
2017-10-16T06:20:14.531Z,22.33
2017-10-16T06:22:40.772Z,23.37
2017-10-16T06:25:07.019Z,26.10
2017-10-16T06:27:33.259Z,23.07
2017-10-16T06:29:59.510Z,19.10
2017-10-16T06:32:25.780Z,20.40
2017-10-16T06:34:52.015Z,14.07
2017-10-16T06:37:18.419Z,17.40
2017-10-16T06:39:44.638Z,13.70
2017-10-16T06:42:10.879Z,19.23
2017-10-16T06:44:37.122Z,29.23
2017-10-16T06:47:03.371Z,16.53
2017-10-16T06:49:29.613Z,19.90
2017-10-16T06:51:55.831Z,21.03
2017-10-16T06:54:22.099Z,21.03
2017-10-16T06:56:48.486Z,23.40
2017-10-16T06:59:14.762Z,28.60
2017-10-16T07:01:40.976Z,34.40
2017-10-16T07:04:07.197Z,21.93
2017-10-16T07:06:33.474Z,47.10
2017-10-16T07:08:59.767Z,44.23
2017-10-16T07:11:26.059Z,39.57
2017-10-16T07:13:52.344Z,53.57
2017-10-16T07:16:18.629Z,71.00
2017-10-16T07:18:44.941Z,70.57
2017-10-16T07:21:11.229Z,56.77
2017-10-16T07:23:37.526Z,65.80
2017-10-16T07:26:03.811Z,74.07
2017-10-16T07:28:30.069Z,62.27
2017-10-16T07:30:56.353Z,55.03
2017-10-16T07:33:22.633Z,32.20
2017-10-16T07:35:48.930Z,27.47
2017-10-16T07:38:15.217Z,14.90
2017-10-16T07:40:41.500Z,45.30
2017-10-16T07:43:07.810Z,32.10
2017-10-16T07:45:34.092Z,35.90
2017-10-16T07:48:00.350Z,18.03
2017-10-16T07:50:26.744Z,14.10
2017-10-16T07:52:53.004Z,17.77
2017-10-16T07:55:19.405Z,17.70
2017-10-16T07:57:45.703Z,30.30
2017-10-16T08:00:11.985Z,25.47
2017-10-16T08:02:38.260Z,23.80
2017-10-16T08:05:04.525Z,27.90
2017-10-16T08:07:30.847Z,49.33
2017-10-16T08:09:57.118Z,59.43
2017-10-16T08:12:23.383Z,77.53
2017-10-16T08:14:49.643Z,64.03
2017-10-16T08:17:15.922Z,49.47
2017-10-16T08:19:42.287Z,81.87
2017-10-16T08:22:08.567Z,31.87
2017-10-16T08:24:34.846Z,61.47
2017-10-16T08:27:01.114Z,29.87
2017-10-16T08:29:27.396Z,37.70
2017-10-16T08:31:53.734Z,19.23
2017-10-16T08:34:20.009Z,15.80
2017-10-16T08:36:46.256Z,9.93
2017-10-16T08:39:12.564Z,13.23
2017-10-16T08:41:38.829Z,15.20
2017-10-16T08:44:05.224Z,22.87
2017-10-16T08:46:31.503Z,20.03
2017-10-16T08:48:57.778Z,21.83
2017-10-16T08:51:24.040Z,23.33
2017-10-16T08:53:50.313Z,14.47
2017-10-16T08:56:16.580Z,13.97
2017-10-16T08:58:42.876Z,24.20
2017-10-16T09:01:09.155Z,17.27
2017-10-16T09:03:35.472Z,37.63
2017-10-16T09:06:01.745Z,31.10
2017-10-16T09:08:28.012Z,47.33
2017-10-16T09:10:54.305Z,30.70
2017-10-16T09:13:20.587Z,35.97
2017-10-16T09:15:46.909Z,41.07
2017-10-16T09:18:13.232Z,21.27
2017-10-16T09:20:39.509Z,31.77
2017-10-16T09:23:05.781Z,55.60
2017-10-16T09:25:32.049Z,15.27
2017-10-16T09:27:58.351Z,17.07
2017-10-16T09:30:24.795Z,25.53
2017-10-16T09:32:51.072Z,13.43
2017-10-16T09:35:17.355Z,12.87
2017-10-16T09:37:43.625Z,14.50
2017-10-16T09:40:09.917Z,8.20
2017-10-16T09:42:36.189Z,10.20
2017-10-16T09:45:02.460Z,15.37
2017-10-16T09:47:28.809Z,25.93
2017-10-16T09:49:55.087Z,10.00
2017-10-16T09:52:21.391Z,19.83
2017-10-16T09:54:47.666Z,8.97
2017-10-16T09:57:13.931Z,5.27
2017-10-16T09:59:40.199Z,5.10
2017-10-16T10:02:06.457Z,4.50
2017-10-16T10:04:32.832Z,3.97
2017-10-16T10:06:59.095Z,4.10
2017-10-16T10:09:25.391Z,6.63
2017-10-16T10:11:51.652Z,4.60
2017-10-16T10:14:17.930Z,4.00
2017-10-16T10:16:44.246Z,5.23
2017-10-16T10:19:10.528Z,8.90
2017-10-16T10:21:36.793Z,6.03
2017-10-16T10:24:03.060Z,5.90
2017-10-16T10:26:29.326Z,6.33
2017-10-16T10:28:55.605Z,7.33
2017-10-16T10:31:21.945Z,10.07
2017-10-16T10:33:48.252Z,7.07
2017-10-16T10:36:14.513Z,6.93
2017-10-16T10:38:40.787Z,6.47
2017-10-16T10:41:07.098Z,22.40
2017-10-16T10:43:33.362Z,4.60
2017-10-16T10:45:59.615Z,7.83
2017-10-16T10:48:25.876Z,4.20
2017-10-16T10:50:52.135Z,6.03
2017-10-16T10:53:18.400Z,7.73
2017-10-16T10:55:44.667Z,4.50
2017-10-16T10:58:10.923Z,10.37
2017-10-16T11:00:37.197Z,8.93
2017-10-16T11:03:03.453Z,5.10
2017-10-16T11:05:29.765Z,8.10
2017-10-16T11:07:56.037Z,14.07
2017-10-16T11:10:22.316Z,10.03
2017-10-16T11:12:48.637Z,4.23
2017-10-16T11:15:14.892Z,6.00
2017-10-16T11:17:41.178Z,14.77
2017-10-16T11:20:07.448Z,5.67
2017-10-16T11:22:33.712Z,6.10
2017-10-16T11:25:00.009Z,8.17
2017-10-16T11:27:26.289Z,14.37
2017-10-16T11:29:52.589Z,10.60
2017-10-16T11:32:18.864Z,13.90
2017-10-16T11:34:45.119Z,22.43
2017-10-16T11:37:11.374Z,8.23
2017-10-16T11:39:37.637Z,10.33
2017-10-16T11:42:03.915Z,5.77
2017-10-16T11:44:30.195Z,10.83
2017-10-16T11:46:56.453Z,8.17
2017-10-16T11:49:22.781Z,6.43
2017-10-16T11:51:49.099Z,9.43
2017-10-16T11:54:15.560Z,10.60
2017-10-16T11:56:41.857Z,10.13
2017-10-16T11:59:08.123Z,6.00
2017-10-16T12:01:34.384Z,9.40
2017-10-16T12:04:00.666Z,5.47
2017-10-16T12:06:26.932Z,6.37
2017-10-16T12:08:53.220Z,9.43
2017-10-16T12:11:19.497Z,4.23
2017-10-16T12:13:45.794Z,3.73
2017-10-16T12:16:12.067Z,4.80
2017-10-16T12:18:38.355Z,4.78
2017-10-16T12:21:04.774Z,7.10
2017-10-16T12:23:31.037Z,7.53
2017-10-16T12:25:57.298Z,7.22
2017-10-16T12:28:23.604Z,5.80
2017-10-16T12:30:49.872Z,10.45
2017-10-16T12:33:16.131Z,8.63
2017-10-16T12:35:42.401Z,5.90
2017-10-16T12:38:08.696Z,9.20
2017-10-16T12:40:34.956Z,8.87
2017-10-16T12:43:01.216Z,7.40
2017-10-16T12:45:27.528Z,5.90
2017-10-16T12:47:53.798Z,8.10
2017-10-16T12:50:20.153Z,12.87
2017-10-16T12:52:46.422Z,4.80
2017-10-16T12:55:12.829Z,6.53
2017-10-16T12:57:39.094Z,8.90
2017-10-16T13:00:05.366Z,3.90
2017-10-16T13:02:31.612Z,9.77
2017-10-16T13:04:58.058Z,6.60
2017-10-16T13:07:26.183Z,6.07
2017-10-16T13:09:53.025Z,4.77
2017-10-16T13:12:19.628Z,4.00
2017-10-16T13:14:45.915Z,11.17
2017-10-16T13:17:12.217Z,4.90
2017-10-16T13:19:38.617Z,5.50
2017-10-16T13:22:04.929Z,9.10
2017-10-16T13:24:31.219Z,5.30
2017-10-16T13:26:57.486Z,4.93
2017-10-16T13:29:23.805Z,6.47
2017-10-16T13:31:50.073Z,7.63
2017-10-16T13:34:16.329Z,7.77
2017-10-16T13:36:42.641Z,10.97
2017-10-16T13:39:09.020Z,20.77
2017-10-16T13:41:35.422Z,9.50
2017-10-16T13:44:01.709Z,11.10
2017-10-16T13:46:28.098Z,6.33
2017-10-16T13:48:54.408Z,10.63
2017-10-16T13:51:20.717Z,7.17
2017-10-16T13:53:47.044Z,8.27
2017-10-16T13:56:13.344Z,6.93
2017-10-16T13:58:39.622Z,8.60
2017-10-16T14:01:05.923Z,8.73
2017-10-16T14:03:32.199Z,8.27
2017-10-16T14:05:58.585Z,8.73
2017-10-16T14:08:24.883Z,10.63
2017-10-16T14:10:51.225Z,13.73
2017-10-16T14:13:17.497Z,6.93
2017-10-16T14:15:43.792Z,11.30
2017-10-16T14:18:10.111Z,8.70
2017-10-16T14:20:36.406Z,10.43
2017-10-16T14:23:02.689Z,7.57
2017-10-16T14:25:28.966Z,7.33
2017-10-16T14:27:55.414Z,11.13
2017-10-16T14:30:21.759Z,13.20
2017-10-16T14:32:48.047Z,13.80
2017-10-16T14:35:14.339Z,14.40
2017-10-16T14:37:40.617Z,9.23
2017-10-16T14:40:06.902Z,11.10
2017-10-16T14:42:33.208Z,14.50
2017-10-16T14:44:59.511Z,15.30
2017-10-16T14:47:25.808Z,16.43
2017-10-16T14:49:52.084Z,23.53
2017-10-16T14:52:18.376Z,27.10
2017-10-16T14:54:44.657Z,19.73
2017-10-16T14:57:10.952Z,20.77
2017-10-16T14:59:37.285Z,22.23
2017-10-16T15:02:03.548Z,22.43
2017-10-16T15:04:29.805Z,19.40
2017-10-16T15:06:56.113Z,21.80
2017-10-16T15:09:22.403Z,14.53
2017-10-16T15:11:48.665Z,43.37
2017-10-16T15:14:14.942Z,36.00
2017-10-16T15:16:41.217Z,27.30
2017-10-16T15:19:07.503Z,48.67
2017-10-16T15:21:33.820Z,22.10
2017-10-16T15:24:00.088Z,24.57
2017-10-16T15:26:26.354Z,27.33
2017-10-16T15:28:52.630Z,17.30
2017-10-16T15:31:18.952Z,25.33
2017-10-16T15:33:45.217Z,38.33
2017-10-16T15:36:11.466Z,34.53
2017-10-16T15:38:37.747Z,25.30
2017-10-16T15:41:04.027Z,47.40
2017-10-16T15:43:30.346Z,46.10
2017-10-16T15:45:56.606Z,60.47
2017-10-16T15:48:22.926Z,39.57
2017-10-16T15:50:49.204Z,74.30
2017-10-16T15:53:15.459Z,43.20
2017-10-16T15:55:41.712Z,39.30
2017-10-16T15:58:08.019Z,32.50
2017-10-16T16:00:34.300Z,27.60
2017-10-16T16:03:00.588Z,36.90
2017-10-16T16:05:26.838Z,45.57
2017-10-16T16:07:53.102Z,63.33
2017-10-16T16:10:19.377Z,42.63
2017-10-16T16:12:45.691Z,26.10
2017-10-16T16:15:11.951Z,39.37
2017-10-16T16:17:38.226Z,27.43
2017-10-16T16:20:04.548Z,26.27
2017-10-16T16:22:30.832Z,21.23
2017-10-16T16:24:57.141Z,27.87
2017-10-16T16:27:23.412Z,43.83
2017-10-16T16:29:49.686Z,55.33
2017-10-16T16:32:16.118Z,39.20
2017-10-16T16:34:42.390Z,37.60
2017-10-16T16:37:08.726Z,31.23
2017-10-16T16:39:34.986Z,30.00
2017-10-16T16:42:01.269Z,33.57
2017-10-16T16:44:27.550Z,37.20
2017-10-16T16:46:53.834Z,34.97
2017-10-16T16:49:20.155Z,51.73
2017-10-16T16:51:46.415Z,60.40
2017-10-16T16:54:13.037Z,46.87
2017-10-16T16:56:39.489Z,59.53
2017-10-16T16:59:06.101Z,47.97
2017-10-16T17:01:32.607Z,32.53
2017-10-16T17:03:59.048Z,45.80
2017-10-16T17:06:25.564Z,56.13
2017-10-16T17:08:51.853Z,57.37
2017-10-16T17:11:18.449Z,37.00
2017-10-16T17:13:45.091Z,42.90
2017-10-16T17:16:11.478Z,40.10
2017-10-16T17:18:37.772Z,35.37
2017-10-16T17:21:04.032Z,33.80
2017-10-16T17:23:30.305Z,48.70
2017-10-16T17:25:56.572Z,44.70
2017-10-16T17:28:22.854Z,45.43
2017-10-16T17:30:49.125Z,45.30
2017-10-16T17:33:15.398Z,44.10
2017-10-16T17:35:41.665Z,52.87
2017-10-16T17:38:07.945Z,52.43
2017-10-16T17:40:34.287Z,28.30
2017-10-16T17:43:00.545Z,36.97
2017-10-16T17:45:26.804Z,39.30
2017-10-16T17:47:53.112Z,38.40
2017-10-16T17:50:19.389Z,43.20
2017-10-16T17:52:45.782Z,42.63
2017-10-16T17:55:12.043Z,37.23
2017-10-16T17:57:38.291Z,33.80
2017-10-16T18:00:04.597Z,43.20
2017-10-16T18:02:30.861Z,41.83
2017-10-16T18:04:57.141Z,34.07
2017-10-16T18:07:23.408Z,37.80
2017-10-16T18:09:49.659Z,40.00
2017-10-16T18:12:15.969Z,39.43
2017-10-16T18:14:42.229Z,36.30
2017-10-16T18:17:08.502Z,38.70
2017-10-16T18:19:34.773Z,54.83
2017-10-16T18:22:01.028Z,39.97
2017-10-16T18:24:27.381Z,34.40
2017-10-16T18:26:53.648Z,32.90
2017-10-16T18:29:19.911Z,34.50
2017-10-16T18:31:46.181Z,40.50
2017-10-16T18:34:12.443Z,34.63
2017-10-16T18:36:38.722Z,41.17
2017-10-16T18:39:05.184Z,44.27
2017-10-16T18:41:31.459Z,40.23
2017-10-16T18:43:57.721Z,30.63
2017-10-16T18:46:24.059Z,32.10
2017-10-16T18:48:50.364Z,42.40
2017-10-16T18:51:16.624Z,42.47
2017-10-16T18:53:42.898Z,38.30
2017-10-16T18:56:09.162Z,37.20
2017-10-16T18:58:35.427Z,41.20
2017-10-16T19:01:01.722Z,40.43
2017-10-16T19:03:27.989Z,38.43
2017-10-16T19:05:54.267Z,45.83
2017-10-16T19:08:20.605Z,30.40
2017-10-16T19:10:46.879Z,40.40
2017-10-16T19:13:13.147Z,54.97
2017-10-16T19:15:39.452Z,40.37
2017-10-16T19:18:05.724Z,45.17
2017-10-16T19:20:31.976Z,42.07
2017-10-16T19:22:58.251Z,50.27
2017-10-16T19:25:24.536Z,35.73
2017-10-16T19:27:50.839Z,37.33
2017-10-16T19:30:17.105Z,54.23
2017-10-16T19:32:43.423Z,30.30
2017-10-16T19:35:09.775Z,44.03
2017-10-16T19:37:36.025Z,40.80
2017-10-16T19:40:02.312Z,36.00
2017-10-16T19:42:28.587Z,43.63
2017-10-16T19:44:54.977Z,31.13
2017-10-16T19:47:21.234Z,39.87
2017-10-16T19:49:47.467Z,40.03
2017-10-16T19:52:13.720Z,35.77
2017-10-16T19:54:39.992Z,38.77
2017-10-16T19:57:06.253Z,42.80
2017-10-16T19:59:32.529Z,55.30
2017-10-16T20:01:58.797Z,45.43
2017-10-16T20:04:25.029Z,35.70
2017-10-16T20:06:51.382Z,29.97
2017-10-16T20:09:17.565Z,33.73
2017-10-16T20:11:43.839Z,31.00
2017-10-16T20:14:10.028Z,30.47
2017-10-16T20:16:36.205Z,35.03
2017-10-16T20:19:02.386Z,35.50
2017-10-16T20:21:28.579Z,31.93
2017-10-16T20:23:54.813Z,43.47
2017-10-16T20:26:21.001Z,33.00
2017-10-16T20:28:47.178Z,33.87
2017-10-16T20:31:13.366Z,41.23
2017-10-16T20:33:39.564Z,30.90
2017-10-16T20:36:05.783Z,31.67
2017-10-16T20:38:31.962Z,39.50
2017-10-16T20:40:58.164Z,36.53
2017-10-16T20:43:24.381Z,39.97
2017-10-16T20:45:50.573Z,81.13
2017-10-16T20:48:16.768Z,38.93
2017-10-16T20:50:42.936Z,34.20
2017-10-16T20:53:09.156Z,30.43
2017-10-16T20:55:35.358Z,35.77
2017-10-16T20:58:01.533Z,38.77
2017-10-16T21:00:27.739Z,31.70
2017-10-16T21:02:53.994Z,36.00
2017-10-16T21:05:20.203Z,28.90
2017-10-16T21:07:46.426Z,32.23
2017-10-16T21:10:12.632Z,31.43
2017-10-16T21:12:38.848Z,46.50
2017-10-16T21:15:05.045Z,37.43
2017-10-16T21:17:31.289Z,31.87
2017-10-16T21:19:57.467Z,38.47
2017-10-16T21:22:23.680Z,46.03
2017-10-16T21:24:49.906Z,37.40
2017-10-16T21:27:16.123Z,34.00
2017-10-16T21:29:42.372Z,30.90
2017-10-16T21:32:08.555Z,32.57
2017-10-16T21:34:34.760Z,26.70
2017-10-16T21:37:00.998Z,27.20
2017-10-16T21:39:27.238Z,33.27
2017-10-16T21:41:53.438Z,27.77
2017-10-16T21:44:19.670Z,32.07
2017-10-16T21:46:45.874Z,36.73
2017-10-16T21:49:12.105Z,33.53
2017-10-16T21:51:38.291Z,33.63
2017-10-16T21:54:04.518Z,37.50
2017-10-16T21:56:30.730Z,33.63
2017-10-16T21:58:56.934Z,42.23
2017-10-16T22:01:23.166Z,29.10
2017-10-16T22:03:49.385Z,37.83
2017-10-16T22:06:15.712Z,32.90
2017-10-16T22:08:41.915Z,35.33
2017-10-16T22:11:08.262Z,31.97
2017-10-16T22:13:34.469Z,35.23
2017-10-16T22:16:00.783Z,31.43
2017-10-16T22:18:27.017Z,32.83
2017-10-16T22:20:53.230Z,30.83
2017-10-16T22:23:19.439Z,29.60
2017-10-16T22:25:45.686Z,37.50
2017-10-16T22:28:11.943Z,32.13
2017-10-16T22:30:38.212Z,31.33
2017-10-16T22:33:04.479Z,35.17
2017-10-16T22:35:30.748Z,42.83
2017-10-16T22:37:57.046Z,36.00
2017-10-16T22:40:23.323Z,40.80
2017-10-16T22:42:49.585Z,34.47
2017-10-16T22:45:15.862Z,37.20
2017-10-16T22:47:42.127Z,33.40
2017-10-16T22:50:08.460Z,33.60
2017-10-16T22:52:34.715Z,27.03
2017-10-16T22:55:00.992Z,28.40
2017-10-16T22:57:27.267Z,30.97
2017-10-16T22:59:53.514Z,35.80
2017-10-16T23:02:19.822Z,43.53
2017-10-16T23:04:46.097Z,32.17
2017-10-16T23:07:12.358Z,33.10
2017-10-16T23:09:38.751Z,25.33
2017-10-16T23:12:05.004Z,26.10
2017-10-16T23:14:31.324Z,29.90
2017-10-16T23:16:57.573Z,39.53
2017-10-16T23:19:23.817Z,31.53
2017-10-16T23:21:50.073Z,36.10
2017-10-16T23:24:16.341Z,25.97
2017-10-16T23:26:42.624Z,27.93
2017-10-16T23:29:08.897Z,33.23
2017-10-16T23:31:35.149Z,32.43
2017-10-16T23:34:01.412Z,31.77
2017-10-16T23:36:27.669Z,29.83
2017-10-16T23:38:53.968Z,27.70
2017-10-16T23:41:20.237Z,27.20
2017-10-16T23:43:46.496Z,26.33
2017-10-16T23:46:12.782Z,29.77
2017-10-16T23:48:39.076Z,29.33
2017-10-16T23:51:05.359Z,43.77
2017-10-16T23:53:31.646Z,35.63
2017-10-16T23:55:57.950Z,32.73
2017-10-16T23:58:24.211Z,48.67
